Terminal Aerodrome Forecast
Issued by NWS Medford, OR

Home | Current Version | Previous Version | Text Only | Print | Product List | Glossary On
Versions: 1 2 3 4 5 6 7 8 9 10 11 12 13 14
000
FTUS46 KMFR 250539
TAFMFR
TAF
KMFR 250539Z 2506/2606 32005KT P6SM SKC
     FM250900 VRB03KT P6SM SKC
     FM251900 31009KT P6SM SKC
     FM260400 34004KT P6SM SKC=

USA.gov is the U.S. government's official web portal to all federal, state and local government web resources and services.